Time;durP1;ratioP1;P1;durP2;ratioP2;P2;SDS_P1;SDS_P2;PMS_P1;PMS_P2;Temp;Humidity;BMP_temperature;BMP_pressure;BME280_temperature;BME280_humidity;BME280_pressure;Samples;Min_cycle;Max_cycle;Signal;HPM_P1;HPM_P2
2022/11/20 00:00:18;;;;;;;8.60;7.77;;;;;;;-1.87;84.81;100372.56;5023708;28;20210;-84
2022/11/20 00:02:45;;;;;;;8.50;7.80;;;;;;;-1.88;84.66;100375.09;5025010;28;20207;-83
2022/11/20 00:05:13;;;;;;;8.93;7.87;;;;;;;-1.85;84.68;100381.16;5023980;28;20218;-83
2022/11/20 00:07:40;;;;;;;8.43;7.53;;;;;;;-1.82;84.64;100381.25;5022074;28;20681;-83
2022/11/20 00:10:09;;;;;;;8.57;7.77;;;;;;;-1.77;84.22;100388.22;5018692;28;20226;-84
2022/11/20 00:12:35;;;;;;;8.77;7.97;;;;;;;-1.85;84.17;100396.50;5023345;28;20199;-83
2022/11/20 00:15:02;;;;;;;8.63;7.73;;;;;;;-1.84;84.18;100410.19;5036840;28;20268;-83
2022/11/20 00:17:28;;;;;;;8.70;7.90;;;;;;;-1.87;83.25;100415.19;5043559;28;20206;-82
2022/11/20 00:19:55;;;;;;;9.03;8.10;;;;;;;-1.91;83.23;100421.91;5043321;28;20209;-83
2022/11/20 00:22:21;;;;;;;9.17;8.27;;;;;;;-1.94;83.49;100421.81;5044368;28;20206;-83
2022/11/20 00:24:49;;;;;;;9.20;8.30;;;;;;;-2.00;83.94;100424.19;5043521;28;20226;-83
2022/11/20 00:27:17;;;;;;;9.33;8.50;;;;;;;-2.02;84.06;100410.50;5044364;28;20206;-83
2022/11/20 00:29:43;;;;;;;8.17;7.43;;;;;;;-2.00;83.79;100416.53;5044628;28;20617;-82
2022/11/20 00:32:10;;;;;;;8.63;7.10;;;;;;;-1.93;83.46;100417.56;5043999;28;20206;-84
2022/11/20 00:34:36;;;;;;;8.47;7.67;;;;;;;-1.87;83.06;100426.28;5045009;28;20241;-82
2022/11/20 00:37:02;;;;;;;8.43;7.57;;;;;;;-1.85;82.80;100444.25;5049627;22;20237;-81
2022/11/20 00:39:29;;;;;;;8.30;7.33;;;;;;;-1.94;82.08;100456.75;5018062;28;20250;-80
2022/11/20 00:41:55;;;;;;;8.57;7.67;;;;;;;-1.97;81.85;100472.88;5017512;28;20222;-80
2022/11/20 00:44:23;;;;;;;8.87;8.03;;;;;;;-1.93;81.48;100486.63;5018162;28;20232;-83
2022/11/20 00:46:50;;;;;;;8.17;7.43;;;;;;;-2.00;81.29;100500.94;5017641;28;20580;-82
2022/11/20 00:49:16;;;;;;;8.73;7.87;;;;;;;-2.02;81.59;100502.56;5017138;28;20207;-81
2022/11/20 00:51:42;;;;;;;8.20;7.40;;;;;;;-2.14;82.08;100503.03;5015625;28;20227;-79
2022/11/20 00:54:09;;;;;;;8.30;7.47;;;;;;;-2.12;82.66;100480.03;5017326;28;20698;-81
2022/11/20 00:56:41;;;;;;;10.13;7.50;;;;;;;-2.14;81.89;100477.47;5017199;28;20602;-82
2022/11/20 00:59:11;;;;;;;8.57;7.37;;;;;;;-2.24;81.62;100491.63;5016894;28;20342;-82
2022/11/20 01:01:41;;;;;;;8.00;7.30;;;;;;;-2.32;81.52;100497.28;5016959;28;20286;-82
2022/11/20 01:04:09;;;;;;;7.83;7.07;;;;;;;-2.30;82.23;100485.41;5017962;28;20213;-79
2022/11/20 01:06:38;;;;;;;9.03;8.13;;;;;;;-2.32;82.15;100474.25;5017209;28;20226;-80
2022/11/20 01:09:07;;;;;;;8.63;7.83;;;;;;;-2.37;82.46;100473.25;5019595;28;20265;-80
2022/11/20 01:11:36;;;;;;;8.90;8.10;;;;;;;-2.42;82.35;100468.88;5017277;28;20235;-80
2022/11/20 01:14:06;;;;;;;11.35;10.35;;;;;;;-2.34;82.59;100460.56;5016163;28;20431;-82
2022/11/20 01:16:40;;;;;;;9.97;8.93;;;;;;;-2.40;82.30;100462.13;5018139;28;20222;-81
2022/11/20 01:19:12;;;;;;;9.73;8.73;;;;;;;-2.38;82.20;100454.47;5017737;28;20206;-81
2022/11/20 01:21:40;;;;;;;9.13;8.23;;;;;;;-2.44;81.80;100467.06;5017100;28;20242;-82
2022/11/20 01:24:09;;;;;;;9.07;8.17;;;;;;;-2.45;81.08;100478.09;5017179;28;20210;-81
2022/11/20 01:26:40;;;;;;;8.50;7.70;;;;;;;-2.52;81.67;100488.91;5017067;28;20230;-82
2022/11/20 01:29:08;;;;;;;9.10;8.20;;;;;;;-2.50;82.15;100488.16;5017608;28;20211;-81
2022/11/20 01:31:36;;;;;;;8.20;7.40;;;;;;;-2.52;82.17;100476.16;5017167;28;20226;-82
2022/11/20 01:34:05;;;;;;;7.83;7.03;;;;;;;-2.56;82.27;100466.63;5017896;28;20215;-82
2022/11/20 01:36:35;;;;;;;7.70;6.90;;;;;;;-2.51;82.05;100447.22;5016994;28;20243;-81
2022/11/20 01:39:05;;;;;;;7.80;7.07;;;;;;;-2.49;82.29;100449.00;5017237;28;20236;-81
2022/11/20 01:44:21;;;;;;;8.13;7.33;;;;;;;-2.55;81.99;100451.38;5017490;28;20210;-81
2022/11/20 01:46:56;;;;;;;7.67;6.97;;;;;;;-2.61;82.32;100443.50;5017199;28;20230;-81
2022/11/20 01:49:27;;;;;;;8.03;7.30;;;;;;;-2.60;82.44;100435.88;5017003;28;20205;-81
2022/11/20 01:51:59;;;;;;;7.30;6.57;;;;;;;-2.61;83.25;100421.34;5016528;28;20258;-81
2022/11/20 01:54:31;;;;;;;7.07;6.37;;;;;;;-2.56;83.29;100390.84;5017146;28;20211;-81
2022/11/20 01:57:00;;;;;;;7.73;7.00;;;;;;;-2.58;82.88;100389.06;5016625;28;20231;-81
2022/11/20 01:59:29;;;;;;;7.87;7.17;;;;;;;-2.58;82.93;100389.91;5017341;28;20210;-81
2022/11/20 02:01:57;;;;;;;6.70;6.10;;;;;;;-2.54;82.60;100394.31;5017083;28;20214;-81
2022/11/20 02:04:25;;;;;;;7.33;6.47;;;;;;;-2.56;83.13;100385.72;5018028;28;20673;-80
2022/11/20 02:06:54;;;;;;;6.23;5.63;;;;;;;-2.71;82.58;100391.22;5016412;28;20232;-81
2022/11/20 02:09:22;;;;;;;7.27;6.57;;;;;;;-2.86;83.22;100380.47;5016270;28;20696;-79
2022/11/20 02:11:48;;;;;;;7.60;6.90;;;;;;;-3.20;83.86;100369.94;5015909;28;20231;-81
2022/11/20 02:14:14;;;;;;;8.20;7.50;;;;;;;-3.36;85.10;100346.41;5015846;28;20585;-78
2022/11/20 02:16:46;;;;;;;8.43;7.63;;;;;;;-3.65;85.47;100325.78;5016389;28;20241;-80
2022/11/20 02:19:22;;;;;;;10.23;9.23;;;;;;;-3.75;86.35;100293.13;5016675;28;20234;-81
2022/11/20 02:21:57;;;;;;;11.30;10.20;;;;;;;-3.79;87.18;100261.53;5015988;28;20211;-80
2022/11/20 02:24:25;;;;;;;12.07;8.70;;;;;;;-3.76;86.81;100231.06;5016199;28;20212;-79
2022/11/20 02:26:54;;;;;;;10.80;9.80;;;;;;;-3.65;87.24;100219.56;5016144;28;20717;-81
2022/11/20 02:29:27;;;;;;;10.17;9.23;;;;;;;-3.48;87.53;100206.50;5015533;28;20217;-81
2022/11/20 02:31:55;;;;;;;10.33;9.23;;;;;;;-3.46;86.57;100200.63;5015615;28;20288;-81
2022/11/20 02:34:22;;;;;;;9.83;8.83;;;;;;;-3.40;86.70;100203.38;5015432;28;20214;-82
2022/11/20 02:36:50;;;;;;;9.20;8.40;;;;;;;-3.31;85.71;100213.03;5015973;28;20609;-81
2022/11/20 02:39:17;;;;;;;8.83;8.03;;;;;;;-3.24;86.30;100219.19;5016088;28;20214;-82
2022/11/20 02:41:45;;;;;;;9.80;8.23;;;;;;;-3.13;85.54;100212.78;5015681;28;20230;-79
2022/11/20 02:44:11;;;;;;;9.30;8.40;;;;;;;-3.11;85.23;100228.13;5016100;28;20207;-82
2022/11/20 02:46:38;;;;;;;8.80;7.90;;;;;;;-3.06;84.56;100237.66;5015890;28;20230;-81
2022/11/20 02:49:07;;;;;;;9.37;8.37;;;;;;;-3.01;84.54;100248.06;5015582;28;20210;-82
2022/11/20 02:51:36;;;;;;;9.27;8.23;;;;;;;-3.10;84.17;100263.06;5015207;28;20223;-82
2022/11/20 02:54:02;;;;;;;7.90;6.87;;;;;;;-3.24;84.62;100268.56;5015980;28;20221;-82
2022/11/20 02:56:29;;;;;;;7.23;6.53;;;;;;;-3.20;84.65;100265.28;5015869;28;20229;-80
2022/11/20 02:58:58;;;;;;;8.00;6.43;;;;;;;-3.15;84.41;100268.00;5014789;28;20211;-82
2022/11/20 03:01:26;;;;;;;8.10;7.20;;;;;;;-3.07;84.57;100270.78;5015135;28;20209;-81
2022/11/20 03:03:54;;;;;;;7.27;6.33;;;;;;;-3.03;83.33;100290.53;5015900;28;20214;-82
2022/11/20 03:06:20;;;;;;;6.60;5.97;;;;;;;-2.89;83.43;100299.50;5015193;28;20582;-80
2022/11/20 03:08:47;;;;;;;7.33;6.43;;;;;;;-2.82;83.38;100310.78;5015634;28;20211;-82
2022/11/20 03:11:13;;;;;;;8.77;7.77;;;;;;;-2.83;82.69;100332.06;5014592;28;20230;-81
2022/11/20 03:13:40;;;;;;;9.50;8.60;;;;;;;-2.86;82.41;100352.38;5015247;28;20210;-81
2022/11/20 03:16:13;;;;;;;10.70;9.60;;;;;;;-2.82;82.60;100347.41;5014660;28;20616;-80
2022/11/20 03:18:40;;;;;;;12.20;10.83;;;;;;;-2.84;82.26;100354.16;5015564;28;20678;-81
2022/11/20 03:21:08;;;;;;;11.47;10.37;;;;;;;-2.90;81.35;100373.53;5015248;28;20214;-81
2022/11/20 03:23:36;;;;;;;10.73;9.73;;;;;;;-2.96;81.86;100386.94;5015179;28;20673;-80
2022/11/20 03:26:14;;;;;;;13.07;9.53;;;;;;;-3.11;81.91;100394.94;5015511;28;20223;-80
2022/11/20 03:28:41;;;;;;;10.13;9.13;;;;;;;-3.13;82.51;100376.16;5015653;28;20217;-81
2022/11/20 03:31:14;;;;;;;10.77;8.80;;;;;;;-3.02;82.59;100359.50;5015135;28;20229;-81
2022/11/20 03:33:41;;;;;;;9.93;9.03;;;;;;;-2.97;82.04;100366.44;5015753;28;20282;-78
2022/11/20 03:36:10;;;;;;;10.80;9.70;;;;;;;-3.02;81.50;100384.19;5015118;28;20242;-81
2022/11/20 03:38:37;;;;;;;9.93;8.90;;;;;;;-3.06;81.80;100384.88;5014752;28;20211;-79
2022/11/20 03:41:06;;;;;;;9.80;8.80;;;;;;;-3.05;81.79;100377.28;5015106;28;20202;-81
2022/11/20 03:43:35;;;;;;;8.80;7.73;;;;;;;-3.13;82.32;100381.25;5015234;28;20210;-82
2022/11/20 03:46:03;;;;;;;8.17;7.37;;;;;;;-3.14;82.21;100371.84;5015211;28;20223;-83
2022/11/20 03:48:31;;;;;;;9.00;8.10;;;;;;;-3.09;82.16;100364.34;5014957;28;20293;-82
2022/11/20 03:51:08;;;;;;;9.60;8.70;;;;;;;-3.11;81.97;100368.53;5014488;28;20226;-80
2022/11/20 03:53:34;;;;;;;10.57;9.03;;;;;;;-3.14;81.62;100373.53;5014623;28;20197;-80
2022/11/20 03:56:01;;;;;;;9.00;8.10;;;;;;;-3.24;81.95;100372.34;5014795;28;20227;-80
2022/11/20 03:58:27;;;;;;;9.20;7.97;;;;;;;-3.13;81.94;100363.38;5014600;28;20226;-81
2022/11/20 04:00:56;;;;;;;9.53;8.53;;;;;;;-3.15;81.04;100372.69;5014269;28;20226;-80
2022/11/20 04:03:22;;;;;;;8.97;8.07;;;;;;;-3.15;81.11;100382.88;5014692;28;20210;-81
2022/11/20 04:05:50;;;;;;;10.20;9.13;;;;;;;-3.19;81.60;100383.59;5014678;28;20214;-80
2022/11/20 04:08:16;;;;;;;8.97;8.07;;;;;;;-3.18;81.46;100376.81;5014948;28;20222;-81
2022/11/20 04:10:44;;;;;;;9.13;8.23;;;;;;;-3.24;82.46;100372.34;5014377;28;20231;-80
2022/11/20 04:13:10;;;;;;;9.73;8.83;;;;;;;-3.30;82.33;100360.22;5014616;28;20211;-80
2022/11/20 04:15:37;;;;;;;9.00;7.73;;;;;;;-3.20;82.40;100348.66;5014262;28;20226;-80
2022/11/20 04:18:03;;;;;;;8.73;7.93;;;;;;;-3.21;82.50;100344.34;5014450;28;20209;-81
2022/11/20 04:20:30;;;;;;;8.40;7.60;;;;;;;-3.22;82.90;100330.72;5013901;28;20210;-79
2022/11/20 04:22:57;;;;;;;9.43;8.40;;;;;;;-3.23;82.70;100315.34;5014713;28;20233;-80
2022/11/20 04:25:25;;;;;;;7.43;6.73;;;;;;;-3.21;82.55;100312.06;5014685;28;20217;-80
2022/11/20 04:27:51;;;;;;;7.33;6.63;;;;;;;-3.14;82.29;100319.94;5018065;28;20227;-79
2022/11/20 04:30:18;;;;;;;9.13;6.20;;;;;;;-3.12;81.86;100329.38;5017916;28;20211;-81
2022/11/20 04:32:44;;;;;;;6.77;6.07;;;;;;;-3.16;82.57;100321.56;5018283;28;20234;-80
2022/11/20 04:35:11;;;;;;;6.73;6.10;;;;;;;-3.20;82.83;100315.47;5018305;28;20206;-80
2022/11/20 04:37:37;;;;;;;6.50;5.90;;;;;;;-3.21;83.33;100301.84;5017387;28;20226;-81
2022/11/20 04:40:06;;;;;;;6.57;5.97;;;;;;;-3.21;83.84;100283.09;5017550;28;20207;-79
2022/11/20 04:42:34;;;;;;;6.00;5.40;;;;;;;-3.18;84.06;100280.66;5018234;28;20207;-80
2022/11/20 04:45:01;;;;;;;6.60;6.00;;;;;;;-3.09;82.97;100283.53;5017792;28;20685;-80
2022/11/20 04:47:27;;;;;;;5.67;5.13;;;;;;;-2.95;83.80;100267.78;5017369;28;20589;-80
2022/11/20 04:49:54;;;;;;;6.30;5.80;;;;;;;-2.91;83.64;100264.53;5017212;28;20203;-81
2022/11/20 04:52:22;;;;;;;5.37;4.87;;;;;;;-2.95;83.07;100268.69;5017227;28;20222;-81
2022/11/20 04:54:48;;;;;;;5.50;5.00;;;;;;;-2.94;83.07;100280.59;5017679;28;20210;-80
2022/11/20 04:57:16;;;;;;;8.03;6.53;;;;;;;-2.92;83.16;100286.63;5017259;28;20231;-80
2022/11/20 04:59:44;;;;;;;7.00;6.40;;;;;;;-2.90;82.98;100289.25;5017581;28;20203;-81
2022/11/20 05:02:11;;;;;;;9.83;8.00;;;;;;;-2.90;83.23;100294.34;5017751;28;20206;-81
2022/11/20 05:04:38;;;;;;;8.53;7.43;;;;;;;-2.83;82.50;100298.84;5017519;28;20211;-80
2022/11/20 05:07:04;;;;;;;8.77;7.90;;;;;;;-2.89;82.42;100298.66;5017262;28;20230;-80
2022/11/20 05:09:33;;;;;;;7.67;7.00;;;;;;;-2.89;83.08;100291.84;5017580;28;20218;-80
2022/11/20 05:11:59;;;;;;;8.23;7.40;;;;;;;-2.90;83.28;100291.81;5017097;28;20235;-80
2022/11/20 05:14:27;;;;;;;9.03;8.13;;;;;;;-2.84;83.52;100281.78;5017509;28;20575;-79
2022/11/20 05:16:53;;;;;;;7.23;6.53;;;;;;;-2.83;83.81;100270.75;5017396;28;20760;-81
2022/11/20 05:19:21;;;;;;;6.97;6.33;;;;;;;-2.76;83.96;100266.72;5017355;28;20214;-80
2022/11/20 05:21:48;;;;;;;5.60;5.10;;;;;;;-2.83;82.16;100263.97;5016646;28;20332;-81
2022/11/20 05:24:14;;;;;;;6.53;5.93;;;;;;;-2.70;82.77;100283.09;5017058;28;20233;-82
2022/11/20 05:26:40;;;;;;;7.20;6.50;;;;;;;-2.69;83.52;100269.50;5016941;28;20249;-81
2022/11/20 05:29:07;;;;;;;6.80;6.20;;;;;;;-2.58;83.68;100256.19;5017412;28;20202;-80
2022/11/20 05:31:36;;;;;;;7.40;6.70;;;;;;;-2.60;83.51;100251.91;5016454;28;20266;-80
2022/11/20 05:34:02;;;;;;;8.30;7.40;;;;;;;-2.62;83.12;100248.47;5016733;28;20617;-80
2022/11/20 05:36:29;;;;;;;10.57;9.57;;;;;;;-2.60;82.88;100261.25;5016549;28;20237;-80
2022/11/20 05:38:55;;;;;;;8.83;8.03;;;;;;;-2.72;82.65;100265.97;5016035;28;20206;-82
2022/11/20 05:41:22;;;;;;;8.53;7.67;;;;;;;-2.75;82.65;100271.88;5016273;28;20206;-82
2022/11/20 05:43:50;;;;;;;7.93;7.17;;;;;;;-2.84;83.13;100259.66;5016701;28;20216;-82
2022/11/20 05:46:18;;;;;;;7.87;6.27;;;;;;;-2.77;83.51;100249.63;5016392;28;20226;-80
2022/11/20 05:48:47;;;;;;;8.60;7.27;;;;;;;-2.70;82.03;100267.75;5016226;28;20238;-79
2022/11/20 05:51:15;;;;;;;8.10;7.37;;;;;;;-2.85;81.49;100298.78;5015832;28;20227;-80
2022/11/20 05:53:42;;;;;;;8.10;7.33;;;;;;;-3.25;82.23;100317.00;5016185;28;20207;-81
2022/11/20 05:56:12;;;;;;;8.33;7.50;;;;;;;-3.15;83.19;100301.19;5016709;28;20223;-82
2022/11/20 05:58:41;;;;;;;7.33;6.70;;;;;;;-3.05;83.50;100293.03;5015823;28;20206;-80
2022/11/20 06:01:10;;;;;;;8.23;7.47;;;;;;;-2.97;83.40;100272.88;5015443;28;20206;-80
2022/11/20 06:03:37;;;;;;;8.00;6.97;;;;;;;-2.90;83.20;100272.22;5015685;28;20731;-80
2022/11/20 06:06:06;;;;;;;10.03;7.90;;;;;;;-2.82;83.24;100277.59;5016268;28;20249;-81
2022/11/20 06:08:35;;;;;;;7.60;6.90;;;;;;;-2.84;83.28;100280.09;5015860;28;20207;-81
2022/11/20 06:11:05;;;;;;;9.53;8.63;;;;;;;-2.71;82.74;100276.25;5015578;28;20209;-83
2022/11/20 06:13:31;;;;;;;8.27;7.47;;;;;;;-2.74;83.21;100270.16;5015773;28;20223;-80
2022/11/20 06:15:58;;;;;;;8.47;7.77;;;;;;;-2.74;83.48;100268.47;5015751;28;20223;-80
2022/11/20 06:18:27;;;;;;;8.83;8.03;;;;;;;-2.62;83.31;100268.00;5015976;28;20211;-82
2022/11/20 06:21:00;;;;;;;8.00;7.23;;;;;;;-2.84;82.73;100274.13;5016076;28;20211;-81
2022/11/20 06:23:30;;;;;;;8.90;8.10;;;;;;;-2.90;82.90;100274.78;5015894;28;20206;-81
2022/11/20 06:26:01;;;;;;;8.50;7.70;;;;;;;-2.84;83.60;100266.47;5015562;28;20252;-81
2022/11/20 06:28:27;;;;;;;8.07;7.17;;;;;;;-2.76;84.34;100251.38;5015550;28;20214;-80
2022/11/20 06:30:54;;;;;;;7.33;6.63;;;;;;;-2.70;84.22;100239.66;5015046;28;20207;-80
2022/11/20 06:33:20;;;;;;;7.83;7.13;;;;;;;-2.77;83.27;100244.53;5014865;28;20231;-79
2022/11/20 06:35:48;;;;;;;8.43;7.63;;;;;;;-2.67;83.29;100251.69;5014827;28;20203;-81
2022/11/20 06:38:15;;;;;;;8.87;7.97;;;;;;;-2.64;83.45;100261.97;5037668;22;20239;-84
2022/11/20 06:40:43;;;;;;;8.07;7.37;;;;;;;-2.59;83.78;100247.66;5015251;28;20214;-84
2022/11/20 06:43:10;;;;;;;8.93;8.03;;;;;;;-2.58;83.64;100241.72;5015937;28;20209;-83
2022/11/20 06:45:37;;;;;;;8.03;7.23;;;;;;;-2.63;84.08;100228.81;5016680;28;20202;-82
2022/11/20 06:48:04;;;;;;;8.53;7.73;;;;;;;-2.53;83.80;100217.19;5016382;28;20231;-81
2022/11/20 06:50:30;;;;;;;8.97;8.07;;;;;;;-2.55;83.90;100218.84;5015214;28;20210;-84
2022/11/20 06:52:57;;;;;;;7.63;6.83;;;;;;;-2.53;83.93;100218.88;5015328;28;20222;-84
2022/11/20 06:55:23;;;;;;;8.90;8.10;;;;;;;-2.44;83.76;100214.94;5018510;28;20213;-84
2022/11/20 06:57:52;;;;;;;8.23;7.43;;;;;;;-2.46;84.26;100206.34;5018397;28;20226;-84
2022/11/20 07:00:19;;;;;;;8.03;7.23;;;;;;;-2.44;84.54;100199.59;5018373;28;20214;-83
2022/11/20 07:02:48;;;;;;;8.07;7.33;;;;;;;-2.37;84.54;100192.09;5018964;28;20203;-86
2022/11/20 07:05:14;;;;;;;8.20;7.40;;;;;;;-2.28;84.97;100169.34;5018475;28;20211;-84
2022/11/20 07:07:41;;;;;;;8.07;7.27;;;;;;;-2.32;85.32;100167.53;5018477;28;20233;-83
2022/11/20 07:10:08;;;;;;;7.53;6.83;;;;;;;-2.22;85.20;100151.63;5019711;28;20302;-83
2022/11/20 07:12:34;;;;;;;8.33;7.53;;;;;;;-2.16;85.14;100146.69;5020331;28;20230;-85
2022/11/20 07:15:02;;;;;;;7.80;7.10;;;;;;;-2.11;85.51;100134.03;5019970;28;20210;-83
2022/11/20 07:17:29;;;;;;;6.93;6.30;;;;;;;-2.17;85.23;100134.72;5021279;28;20229;-83
2022/11/20 07:19:55;;;;;;;6.70;6.10;;;;;;;-2.32;79.60;100227.22;5023675;28;20213;-84
2022/11/20 07:22:24;;;;;;;6.13;5.63;;;;;;;-2.24;77.67;100311.75;5023966;28;20202;-83
2022/11/20 07:24:50;;;;;;;6.73;6.13;;;;;;;-2.24;77.28;100366.34;5024996;28;20210;-82
2022/11/20 07:27:16;;;;;;;5.70;5.20;;;;;;;-2.12;77.43;100396.53;5025763;28;20226;-83
2022/11/20 07:29:43;;;;;;;7.07;6.20;;;;;;;-1.96;78.48;100417.47;5025840;28;20209;-85
2022/11/20 07:32:15;;;;;;;5.93;5.43;;;;;;;-1.92;78.59;100401.38;5025757;28;20233;-85
2022/11/20 07:34:41;;;;;;;6.37;5.77;;;;;;;-1.74;79.48;100419.88;5025442;28;20689;-85
2022/11/20 07:37:08;;;;;;;6.37;5.80;;;;;;;-1.66;79.24;100413.28;5024477;28;20235;-84
2022/11/20 07:39:34;;;;;;;6.20;5.70;;;;;;;-1.60;79.35;100417.72;5024603;28;20218;-84
2022/11/20 07:42:01;;;;;;;6.13;5.53;;;;;;;-1.51;79.27;100422.25;5022067;28;20210;-83
2022/11/20 07:44:27;;;;;;;6.37;5.77;;;;;;;-1.45;79.39;100418.19;5021157;28;20207;-84
2022/11/20 07:46:55;;;;;;;9.23;8.40;;;;;;;-1.41;80.33;100396.97;5021234;28;20642;-86
2022/11/20 07:49:25;;;;;;;12.63;11.53;;;;;;;-1.37;80.04;100399.59;5020393;28;20649;-87
2022/11/20 07:51:53;;;;;;;12.97;11.87;;;;;;;-1.43;81.38;100372.13;5018771;28;20223;-83
2022/11/20 07:54:20;;;;;;;13.07;11.87;;;;;;;-1.48;81.93;100356.66;5019183;28;20582;-83
2022/11/20 07:56:46;;;;;;;13.30;12.00;;;;;;;-1.40;81.56;100339.81;5019505;28;20231;-83
2022/11/20 07:59:13;;;;;;;12.53;11.33;;;;;;;-1.40;81.56;100341.53;5018048;28;20213;-85
2022/11/20 08:01:39;;;;;;;13.07;11.87;;;;;;;-1.39;82.15;100322.75;5020965;28;20580;-86
2022/11/20 08:04:06;;;;;;;11.47;10.47;;;;;;;-1.30;81.98;100311.91;5024867;28;20213;-84
2022/11/20 08:06:34;;;;;;;12.87;11.30;;;;;;;-1.29;81.75;100308.50;5024261;28;20207;-84
2022/11/20 08:09:00;;;;;;;14.37;13.07;;;;;;;-1.29;82.43;100313.63;5024777;28;20257;-84
2022/11/20 08:14:14;;;;;;;13.77;12.57;;;;;;;-1.24;83.34;100264.28;5023962;28;20233;-83
2022/11/20 08:16:41;;;;;;;13.83;12.53;;;;;;;-1.18;83.43;100244.78;5024604;28;20314;-85
2022/11/20 08:19:08;;;;;;;11.50;10.30;;;;;;;-1.23;82.79;100257.47;5024353;28;20210;-83
2022/11/20 08:21:36;;;;;;;12.03;10.40;;;;;;;-1.15;82.05;100273.03;5024538;28;20212;-83
2022/11/20 08:24:02;;;;;;;12.50;11.27;;;;;;;-1.12;80.93;100293.59;5024807;28;20202;-84
2022/11/20 08:26:30;;;;;;;13.70;11.03;;;;;;;-1.21;81.12;100320.72;5024534;28;20213;-86
2022/11/20 08:28:57;;;;;;;15.30;13.80;;;;;;;-1.26;81.35;100327.41;5025772;28;20297;-84
2022/11/20 08:31:25;;;;;;;15.67;13.60;;;;;;;-1.40;80.68;100327.03;5025151;28;20219;-84
2022/11/20 08:33:52;;;;;;;14.20;12.83;;;;;;;-1.67;81.29;100354.38;5026970;28;20223;-86
2022/11/20 08:36:19;;;;;;;11.90;10.80;;;;;;;-1.93;82.48;100330.59;5026452;28;20211;-87
2022/11/20 08:38:49;;;;;;;9.13;8.23;;;;;;;-1.76;81.94;100311.50;5027295;28;20210;-85
2022/11/20 08:41:26;;;;;;;8.97;8.07;;;;;;;-1.50;82.32;100302.00;5026600;28;20202;-83
2022/11/20 08:43:54;;;;;;;8.13;7.13;;;;;;;-1.46;81.86;100303.81;5027030;28;20205;-85
2022/11/20 08:46:21;;;;;;;8.13;7.33;;;;;;;-1.61;80.65;100322.16;5024360;28;20230;-84
2022/11/20 08:48:48;;;;;;;7.63;6.93;;;;;;;-1.38;80.31;100329.63;5025270;28;20207;-84
2022/11/20 08:51:15;;;;;;;7.60;6.90;;;;;;;-1.25;80.84;100331.72;5025096;28;20209;-84
2022/11/20 08:53:42;;;;;;;8.23;7.43;;;;;;;-1.36;79.34;100361.25;5025711;28;20701;-85
2022/11/20 08:56:18;;;;;;;8.37;7.57;;;;;;;-1.62;77.65;100412.56;5019187;28;20211;-86
2022/11/20 08:58:53;;;;;;;7.90;7.10;;;;;;;-1.85;78.23;100426.34;5016947;28;20273;-87
2022/11/20 09:01:24;;;;;;;7.93;6.97;;;;;;;-1.54;85.99;100371.00;5018956;28;20207;-87
2022/11/20 09:03:56;;;;;;;9.67;8.80;;;;;;;-1.07;90.75;100144.34;5020309;28;20214;-87
2022/11/20 09:06:22;;;;;;;9.43;8.50;;;;;;;-0.92;90.20;100055.84;5021071;28;20210;-87
2022/11/20 09:08:55;;;;;;;8.93;7.83;;;;;;;-0.88;85.80;100039.72;5022013;28;20207;-87
2022/11/20 09:11:25;;;;;;;8.80;7.90;;;;;;;-1.18;77.48;100208.94;5017220;28;20677;-85
2022/11/20 09:13:54;;;;;;;7.93;7.13;;;;;;;-1.02;77.87;100321.19;5014660;28;20289;-85
2022/11/20 09:16:26;;;;;;;8.30;7.50;;;;;;;-1.04;78.51;100372.38;5016012;28;20210;-86
2022/11/20 09:18:54;;;;;;;8.40;7.60;;;;;;;-0.97;80.46;100362.28;5016678;28;20211;-83
2022/11/20 09:21:20;;;;;;;7.67;6.97;;;;;;;-1.10;78.65;100354.28;5015384;28;20206;-81
2022/11/20 09:23:47;;;;;;;7.43;6.73;;;;;;;-0.95;78.62;100383.69;5016538;28;20209;-83
2022/11/20 09:26:15;;;;;;;8.68;7.97;;;;;;;-0.83;79.85;100374.66;5015080;28;20470;-84
2022/11/20 09:28:45;;;;;;;8.60;7.80;;;;;;;-0.83;79.10;100368.66;5016221;28;20257;-84
2022/11/20 09:31:22;;;;;;;8.13;7.33;;;;;;;-0.66;81.85;100312.69;5016047;28;20218;-84
2022/11/20 09:33:48;;;;;;;7.40;6.50;;;;;;;-0.75;77.04;100340.66;5016321;28;20233;-84
2022/11/20 09:36:16;;;;;;;8.00;7.30;;;;;;;-0.60;78.45;100428.19;5015767;28;20218;-85
2022/11/20 09:38:43;;;;;;;13.37;7.30;;;;;;;-0.82;77.46;100517.31;5015507;28;20218;-86
2022/11/20 09:41:34;;;;;;;8.77;7.97;;;;;;;-0.61;76.12;100491.41;5013283;28;20277;-85
2022/11/20 09:44:19;;;;;;;13.00;8.80;;;;;;;-0.31;81.22;100469.13;5014890;28;20600;-86
2022/11/20 09:46:56;;;;;;;9.67;7.97;;;;;;;-0.18;79.03;100403.59;5014559;28;20235;-86
2022/11/20 09:49:48;;;;;;;;;;;;;;;;;;;;;
2022/11/20 09:52:23;;;;;;;7.93;7.17;;;;;;;-0.52;75.77;100438.66;5015981;28;20247;-84
2022/11/20 09:54:51;;;;;;;9.93;7.97;;;;;;;-0.32;79.79;100459.66;5013406;28;20207;-83
2022/11/20 09:57:21;;;;;;;8.13;6.97;;;;;;;-0.54;75.78;100474.50;5016226;28;20227;-84
2022/11/20 09:59:53;;;;;;;9.07;8.13;;;;;;;-0.41;77.77;100455.19;5016354;28;20218;-82
2022/11/20 10:02:29;;;;;;;8.53;7.70;;;;;;;-0.48;76.56;100490.03;5016301;28;20211;-85
2022/11/20 10:05:03;;;;;;;8.10;7.30;;;;;;;-0.82;74.03;100494.25;5015457;28;20206;-83
2022/11/20 10:07:35;;;;;;;8.73;7.90;;;;;;;-1.07;73.83;100566.97;5015921;28;20229;-83
2022/11/20 10:10:01;;;;;;;8.27;7.47;;;;;;;-0.88;75.21;100558.13;5015123;28;20210;-83
2022/11/20 10:12:38;;;;;;;9.47;8.03;;;;;;;-0.58;80.95;100523.94;5015777;28;20227;-83
2022/11/20 10:15:22;;;;;;;9.33;8.40;;;;;;;-0.41;78.54;100445.78;5015469;28;20219;-82
2022/11/20 10:18:06;;;;;;;8.17;7.47;;;;;;;-0.31;77.98;100416.13;5015743;28;20713;-84
2022/11/20 10:20:44;;;;;;;8.23;7.43;;;;;;;-0.07;78.89;100399.59;5015807;28;20201;-84
2022/11/20 10:23:30;;;;;;;8.40;7.60;;;;;;;-0.32;74.96;100462.22;5016997;28;20210;-84
2022/11/20 10:26:02;;;;;;;8.47;7.67;;;;;;;-0.38;74.94;100500.53;5016200;28;20220;-83
2022/11/20 10:28:44;;;;;;;8.80;8.00;;;;;;;-0.88;75.09;100560.69;5016258;28;20223;-84
2022/11/20 10:31:25;;;;;;;10.83;9.70;;;;;;;-0.86;76.04;100543.66;5016322;28;20211;-81
2022/11/20 10:33:54;;;;;;;13.13;11.80;;;;;;;-0.59;76.76;100506.84;5015366;28;20233;-80
2022/11/20 10:36:25;;;;;;;16.23;14.73;;;;;;;-0.84;76.00;100515.53;5014465;28;20195;-83
2022/11/20 10:38:57;;;;;;;12.10;11.10;;;;;;;-0.81;75.85;100526.75;5011616;28;20210;-82
2022/11/20 10:41:26;;;;;;;10.43;9.37;;;;;;;-1.08;76.49;100525.94;5013861;28;20206;-81
2022/11/20 10:44:02;;;;;;;13.50;12.20;;;;;;;-0.73;80.81;100473.16;5012241;28;20203;-82
2022/11/20 10:46:41;;;;;;;11.37;10.27;;;;;;;-0.52;76.86;100405.31;5012941;28;20203;-79
2022/11/20 10:49:13;;;;;;;11.40;10.40;;;;;;;-0.65;76.50;100455.41;5012742;28;20201;-80
2022/11/20 10:51:52;;;;;;;11.27;10.03;;;;;;;-0.54;76.99;100474.50;5012808;28;20203;-81
2022/11/20 10:54:25;;;;;;;10.57;9.57;;;;;;;-0.40;77.23;100462.03;5012194;28;20226;-81
2022/11/20 10:56:53;;;;;;;11.53;10.07;;;;;;;-0.31;77.05;100433.22;5011262;28;20227;-79
2022/11/20 10:59:40;;;;;;;10.50;9.47;;;;;;;-0.30;76.15;100456.31;5013767;28;20198;-80
2022/11/20 11:02:19;;;;;;;11.00;10.00;;;;;;;-0.25;75.96;100474.41;5015238;28;20206;-80
2022/11/20 11:04:47;;;;;;;11.10;10.00;;;;;;;-0.16;76.66;100482.31;5014280;28;20225;-82
2022/11/20 11:07:18;;;;;;;10.93;9.83;;;;;;;-0.02;75.76;100480.97;5012396;28;20228;-81
2022/11/20 11:09:48;;;;;;;10.83;9.10;;;;;;;0.24;76.79;100464.44;5013807;28;20225;-79
2022/11/20 11:12:15;;;;;;;10.90;9.80;;;;;;;0.38;77.01;100456.25;5011599;28;20202;-81
2022/11/20 11:14:47;;;;;;;11.07;9.97;;;;;;;0.15;74.06;100473.66;5014432;28;20203;-80
2022/11/20 11:17:29;;;;;;;11.60;10.50;;;;;;;0.26;74.08;100504.75;5012625;28;20219;-79
2022/11/20 11:20:00;;;;;;;10.37;9.33;;;;;;;-0.04;72.90;100533.94;5011602;28;20210;-81
2022/11/20 11:22:30;;;;;;;9.57;8.67;;;;;;;0.09;72.88;100555.66;5014328;28;20196;-80
2022/11/20 11:24:59;;;;;;;13.30;11.97;;;;;;;-0.17;73.46;100592.59;5013390;28;20210;-80
2022/11/20 11:27:26;;;;;;;9.63;8.73;;;;;;;-0.08;73.56;100588.59;5013784;28;20219;-80
2022/11/20 11:30:11;;;;;;;10.07;9.17;;;;;;;0.07;73.98;100594.94;5013218;28;20210;-79
2022/11/20 11:32:39;;;;;;;10.03;9.03;;;;;;;0.05;72.81;100556.41;5011268;28;20634;-80
2022/11/20 11:35:19;;;;;;;9.90;8.93;;;;;;;-0.12;71.72;100591.91;5012572;28;20673;-79
2022/11/20 11:37:48;;;;;;;11.27;9.00;;;;;;;-0.03;72.54;100619.47;5012635;28;20233;-79